sensor_id;sensor_type;location;lat;lon;timestamp;P1;durP1;ratioP1;P2;durP2;ratioP2
34892;SDS011;21106;52.240;20.902;2023-09-12T00:02:38;17.80;;;12.10;;
34892;SDS011;21106;52.240;20.902;2023-09-12T00:08:05;15.90;;;12.10;;
34892;SDS011;21106;52.240;20.902;2023-09-12T00:13:31;16.00;;;11.10;;
34892;SDS011;21106;52.240;20.902;2023-09-12T00:18:58;17.30;;;11.10;;
34892;SDS011;21106;52.240;20.902;2023-09-12T00:24:24;19.80;;;12.20;;
34892;SDS011;21106;52.240;20.902;2023-09-12T00:29:51;16.50;;;11.10;;
34892;SDS011;21106;52.240;20.902;2023-09-12T00:35:18;15.90;;;11.70;;
34892;SDS011;21106;52.240;20.902;2023-09-12T00:40:44;18.60;;;11.90;;
34892;SDS011;21106;52.240;20.902;2023-09-12T00:46:11;18.00;;;12.30;;
34892;SDS011;21106;52.240;20.902;2023-09-12T00:51:39;17.50;;;12.00;;
34892;SDS011;21106;52.240;20.902;2023-09-12T00:57:06;15.90;;;11.80;;
34892;SDS011;21106;52.240;20.902;2023-09-12T01:02:33;23.60;;;12.10;;
34892;SDS011;21106;52.240;20.902;2023-09-12T01:08:00;19.30;;;11.80;;
34892;SDS011;21106;52.240;20.902;2023-09-12T01:13:27;21.70;;;12.30;;
34892;SDS011;21106;52.240;20.902;2023-09-12T01:18:54;15.00;;;12.10;;
34892;SDS011;21106;52.240;20.902;2023-09-12T01:24:27;16.20;;;12.60;;
34892;SDS011;21106;52.240;20.902;2023-09-12T01:30:02;18.40;;;14.60;;
34892;SDS011;21106;52.240;20.902;2023-09-12T01:35:30;16.50;;;12.50;;
34892;SDS011;21106;52.240;20.902;2023-09-12T01:40:57;18.70;;;13.20;;
34892;SDS011;21106;52.240;20.902;2023-09-12T01:46:24;18.90;;;13.30;;
34892;SDS011;21106;52.240;20.902;2023-09-12T01:51:52;19.90;;;13.10;;
34892;SDS011;21106;52.240;20.902;2023-09-12T01:57:19;19.40;;;14.00;;
34892;SDS011;21106;52.240;20.902;2023-09-12T02:08:15;19.20;;;13.70;;
34892;SDS011;21106;52.240;20.902;2023-09-12T02:13:41;21.50;;;15.60;;
34892;SDS011;21106;52.240;20.902;2023-09-12T02:19:08;21.10;;;14.40;;
34892;SDS011;21106;52.240;20.902;2023-09-12T02:24:35;16.70;;;13.60;;
34892;SDS011;21106;52.240;20.902;2023-09-12T02:30:01;22.10;;;15.20;;
34892;SDS011;21106;52.240;20.902;2023-09-12T02:35:29;17.90;;;15.10;;
34892;SDS011;21106;52.240;20.902;2023-09-12T02:40:56;20.90;;;15.20;;
34892;SDS011;21106;52.240;20.902;2023-09-12T02:46:24;23.70;;;15.70;;
34892;SDS011;21106;52.240;20.902;2023-09-12T02:51:50;20.40;;;14.50;;
34892;SDS011;21106;52.240;20.902;2023-09-12T02:57:17;21.20;;;15.30;;
34892;SDS011;21106;52.240;20.902;2023-09-12T03:02:44;20.90;;;15.20;;
34892;SDS011;21106;52.240;20.902;2023-09-12T03:08:11;26.80;;;16.30;;
34892;SDS011;21106;52.240;20.902;2023-09-12T03:13:39;22.20;;;15.00;;
34892;SDS011;21106;52.240;20.902;2023-09-12T03:19:05;32.50;;;16.40;;
34892;SDS011;21106;52.240;20.902;2023-09-12T03:24:32;21.30;;;15.10;;
34892;SDS011;21106;52.240;20.902;2023-09-12T03:29:59;21.30;;;15.50;;
34892;SDS011;21106;52.240;20.902;2023-09-12T03:35:26;25.20;;;15.50;;
34892;SDS011;21106;52.240;20.902;2023-09-12T03:40:53;19.20;;;15.50;;
34892;SDS011;21106;52.240;20.902;2023-09-12T03:46:20;20.40;;;15.50;;
34892;SDS011;21106;52.240;20.902;2023-09-12T03:51:46;22.30;;;14.80;;
34892;SDS011;21106;52.240;20.902;2023-09-12T03:57:13;21.80;;;14.40;;
34892;SDS011;21106;52.240;20.902;2023-09-12T04:02:40;20.50;;;15.20;;
34892;SDS011;21106;52.240;20.902;2023-09-12T04:08:07;21.20;;;15.60;;
34892;SDS011;21106;52.240;20.902;2023-09-12T04:13:34;18.00;;;14.90;;
34892;SDS011;21106;52.240;20.902;2023-09-12T04:19:00;20.50;;;15.20;;
34892;SDS011;21106;52.240;20.902;2023-09-12T04:24:27;27.60;;;16.80;;
34892;SDS011;21106;52.240;20.902;2023-09-12T04:29:53;22.40;;;16.50;;
34892;SDS011;21106;52.240;20.902;2023-09-12T04:35:20;25.70;;;16.70;;
34892;SDS011;21106;52.240;20.902;2023-09-12T04:40:53;21.30;;;16.90;;
34892;SDS011;21106;52.240;20.902;2023-09-12T04:46:20;22.40;;;16.00;;
34892;SDS011;21106;52.240;20.902;2023-09-12T04:51:47;26.50;;;17.10;;
34892;SDS011;21106;52.240;20.902;2023-09-12T04:57:13;30.40;;;17.30;;
34892;SDS011;21106;52.240;20.902;2023-09-12T05:02:40;32.10;;;22.00;;
34892;SDS011;21106;52.240;20.902;2023-09-12T05:08:07;25.40;;;17.80;;
34892;SDS011;21106;52.240;20.902;2023-09-12T05:13:34;20.60;;;17.00;;
34892;SDS011;21106;52.240;20.902;2023-09-12T05:19:00;25.70;;;17.20;;
34892;SDS011;21106;52.240;20.902;2023-09-12T05:24:27;25.70;;;16.90;;
34892;SDS011;21106;52.240;20.902;2023-09-12T05:29:53;27.90;;;16.90;;
34892;SDS011;21106;52.240;20.902;2023-09-12T05:35:20;29.00;;;17.70;;
34892;SDS011;21106;52.240;20.902;2023-09-12T05:40:47;27.70;;;17.00;;
34892;SDS011;21106;52.240;20.902;2023-09-12T05:46:16;32.70;;;17.60;;
34892;SDS011;21106;52.240;20.902;2023-09-12T05:51:43;30.10;;;18.70;;
34892;SDS011;21106;52.240;20.902;2023-09-12T05:57:10;27.10;;;18.50;;
34892;SDS011;21106;52.240;20.902;2023-09-12T06:02:37;33.10;;;18.80;;
34892;SDS011;21106;52.240;20.902;2023-09-12T06:08:04;28.10;;;17.40;;
34892;SDS011;21106;52.240;20.902;2023-09-12T06:13:31;36.40;;;19.00;;
34892;SDS011;21106;52.240;20.902;2023-09-12T06:18:59;32.40;;;18.30;;
34892;SDS011;21106;52.240;20.902;2023-09-12T06:24:25;35.90;;;18.20;;
34892;SDS011;21106;52.240;20.902;2023-09-12T06:29:52;26.80;;;16.30;;
34892;SDS011;21106;52.240;20.902;2023-09-12T06:35:18;30.40;;;16.20;;
34892;SDS011;21106;52.240;20.902;2023-09-12T06:40:45;32.00;;;16.00;;
34892;SDS011;21106;52.240;20.902;2023-09-12T06:46:13;28.10;;;14.10;;
34892;SDS011;21106;52.240;20.902;2023-09-12T06:51:40;27.10;;;15.60;;
34892;SDS011;21106;52.240;20.902;2023-09-12T06:57:07;26.60;;;15.60;;
34892;SDS011;21106;52.240;20.902;2023-09-12T07:02:33;40.20;;;15.60;;
34892;SDS011;21106;52.240;20.902;2023-09-12T07:08:00;29.20;;;14.30;;
34892;SDS011;21106;52.240;20.902;2023-09-12T07:13:27;31.40;;;13.80;;
34892;SDS011;21106;52.240;20.902;2023-09-12T07:18:53;30.90;;;14.50;;
34892;SDS011;21106;52.240;20.902;2023-09-12T07:24:20;30.50;;;15.10;;
34892;SDS011;21106;52.240;20.902;2023-09-12T07:29:50;24.90;;;13.60;;
34892;SDS011;21106;52.240;20.902;2023-09-12T07:35:17;29.70;;;13.80;;
34892;SDS011;21106;52.240;20.902;2023-09-12T07:40:44;28.40;;;13.20;;
34892;SDS011;21106;52.240;20.902;2023-09-12T07:46:10;32.80;;;13.40;;
34892;SDS011;21106;52.240;20.902;2023-09-12T07:51:38;30.60;;;11.60;;
34892;SDS011;21106;52.240;20.902;2023-09-12T07:57:05;20.00;;;10.60;;
34892;SDS011;21106;52.240;20.902;2023-09-12T08:02:31;14.90;;;8.70;;
34892;SDS011;21106;52.240;20.902;2023-09-12T08:07:58;22.60;;;9.50;;
34892;SDS011;21106;52.240;20.902;2023-09-12T08:13:25;31.30;;;11.90;;
34892;SDS011;21106;52.240;20.902;2023-09-12T08:18:53;24.50;;;11.20;;
34892;SDS011;21106;52.240;20.902;2023-09-12T08:24:19;23.30;;;10.20;;
34892;SDS011;21106;52.240;20.902;2023-09-12T08:29:46;23.90;;;11.90;;
34892;SDS011;21106;52.240;20.902;2023-09-12T08:35:14;25.80;;;11.90;;
34892;SDS011;21106;52.240;20.902;2023-09-12T08:40:47;38.20;;;12.70;;
34892;SDS011;21106;52.240;20.902;2023-09-12T08:46:14;21.80;;;9.20;;
34892;SDS011;21106;52.240;20.902;2023-09-12T08:51:41;12.30;;;7.90;;
34892;SDS011;21106;52.240;20.902;2023-09-12T08:57:08;16.40;;;9.90;;
34892;SDS011;21106;52.240;20.902;2023-09-12T09:02:41;13.00;;;8.20;;
34892;SDS011;21106;52.240;20.902;2023-09-12T09:08:08;15.50;;;7.50;;
34892;SDS011;21106;52.240;20.902;2023-09-12T09:13:35;13.40;;;7.10;;
34892;SDS011;21106;52.240;20.902;2023-09-12T09:19:03;10.20;;;7.60;;
34892;SDS011;21106;52.240;20.902;2023-09-12T09:24:35;11.90;;;7.00;;
34892;SDS011;21106;52.240;20.902;2023-09-12T09:30:02;11.90;;;7.40;;
34892;SDS011;21106;52.240;20.902;2023-09-12T09:35:29;17.80;;;7.70;;
34892;SDS011;21106;52.240;20.902;2023-09-12T09:40:56;17.10;;;7.60;;
34892;SDS011;21106;52.240;20.902;2023-09-12T09:46:23;14.90;;;7.90;;
34892;SDS011;21106;52.240;20.902;2023-09-12T09:51:49;10.70;;;7.20;;
34892;SDS011;21106;52.240;20.902;2023-09-12T09:57:16;10.30;;;6.60;;
34892;SDS011;21106;52.240;20.902;2023-09-12T10:02:43;13.50;;;7.60;;
34892;SDS011;21106;52.240;20.902;2023-09-12T10:08:10;14.40;;;8.10;;
34892;SDS011;21106;52.240;20.902;2023-09-12T10:13:38;9.80;;;7.40;;
34892;SDS011;21106;52.240;20.902;2023-09-12T10:19:12;11.60;;;7.70;;
34892;SDS011;21106;52.240;20.902;2023-09-12T10:24:40;12.00;;;7.20;;
34892;SDS011;21106;52.240;20.902;2023-09-12T10:30:08;22.30;;;8.20;;
34892;SDS011;21106;52.240;20.902;2023-09-12T10:35:35;15.20;;;7.80;;
34892;SDS011;21106;52.240;20.902;2023-09-12T10:41:03;12.90;;;7.20;;
34892;SDS011;21106;52.240;20.902;2023-09-12T10:46:31;11.80;;;7.30;;
34892;SDS011;21106;52.240;20.902;2023-09-12T10:51:58;8.90;;;7.30;;
34892;SDS011;21106;52.240;20.902;2023-09-12T10:57:25;12.60;;;8.10;;
34892;SDS011;21106;52.240;20.902;2023-09-12T11:02:51;15.10;;;8.20;;
34892;SDS011;21106;52.240;20.902;2023-09-12T11:08:18;10.50;;;7.00;;
34892;SDS011;21106;52.240;20.902;2023-09-12T11:13:45;26.20;;;9.70;;
34892;SDS011;21106;52.240;20.902;2023-09-12T11:19:18;15.60;;;9.60;;
34892;SDS011;21106;52.240;20.902;2023-09-12T11:24:45;14.60;;;8.20;;
34892;SDS011;21106;52.240;20.902;2023-09-12T11:30:13;11.50;;;7.70;;
34892;SDS011;21106;52.240;20.902;2023-09-12T11:35:41;12.00;;;8.20;;
34892;SDS011;21106;52.240;20.902;2023-09-12T11:41:09;12.60;;;8.60;;
34892;SDS011;21106;52.240;20.902;2023-09-12T11:46:36;14.70;;;7.60;;
34892;SDS011;21106;52.240;20.902;2023-09-12T11:52:03;10.50;;;7.80;;
34892;SDS011;21106;52.240;20.902;2023-09-12T11:57:30;13.90;;;7.80;;
34892;SDS011;21106;52.240;20.902;2023-09-12T12:02:58;9.10;;;8.20;;
34892;SDS011;21106;52.240;20.902;2023-09-12T12:08:25;13.00;;;8.10;;
34892;SDS011;21106;52.240;20.902;2023-09-12T12:13:52;9.50;;;7.80;;
34892;SDS011;21106;52.240;20.902;2023-09-12T12:19:19;9.40;;;8.30;;
34892;SDS011;21106;52.240;20.902;2023-09-12T12:24:46;10.20;;;7.90;;
34892;SDS011;21106;52.240;20.902;2023-09-12T12:30:13;12.30;;;8.80;;
34892;SDS011;21106;52.240;20.902;2023-09-12T12:35:39;14.90;;;8.80;;
34892;SDS011;21106;52.240;20.902;2023-09-12T12:41:06;12.40;;;8.00;;
34892;SDS011;21106;52.240;20.902;2023-09-12T12:46:33;11.10;;;8.10;;
34892;SDS011;21106;52.240;20.902;2023-09-12T12:51:59;12.30;;;8.20;;
34892;SDS011;21106;52.240;20.902;2023-09-12T12:57:30;15.30;;;8.40;;
34892;SDS011;21106;52.240;20.902;2023-09-12T13:02:56;15.20;;;8.30;;
34892;SDS011;21106;52.240;20.902;2023-09-12T13:08:22;13.10;;;8.40;;
34892;SDS011;21106;52.240;20.902;2023-09-12T13:13:51;12.20;;;8.50;;
34892;SDS011;21106;52.240;20.902;2023-09-12T13:19:18;12.00;;;8.70;;
34892;SDS011;21106;52.240;20.902;2023-09-12T13:24:45;10.80;;;8.10;;
34892;SDS011;21106;52.240;20.902;2023-09-12T13:30:12;13.90;;;8.10;;
34892;SDS011;21106;52.240;20.902;2023-09-12T13:35:39;15.50;;;9.20;;
34892;SDS011;21106;52.240;20.902;2023-09-12T13:41:06;14.90;;;8.80;;
34892;SDS011;21106;52.240;20.902;2023-09-12T13:46:33;11.80;;;7.40;;
34892;SDS011;21106;52.240;20.902;2023-09-12T13:51:59;14.80;;;9.20;;
34892;SDS011;21106;52.240;20.902;2023-09-12T13:57:26;14.30;;;7.90;;
34892;SDS011;21106;52.240;20.902;2023-09-12T14:02:52;14.80;;;8.10;;
34892;SDS011;21106;52.240;20.902;2023-09-12T14:08:19;12.00;;;8.60;;
34892;SDS011;21106;52.240;20.902;2023-09-12T14:13:45;15.70;;;9.30;;
34892;SDS011;21106;52.240;20.902;2023-09-12T14:19:12;9.60;;;7.60;;
34892;SDS011;21106;52.240;20.902;2023-09-12T14:24:39;15.30;;;8.40;;
34892;SDS011;21106;52.240;20.902;2023-09-12T14:30:06;9.00;;;8.10;;
34892;SDS011;21106;52.240;20.902;2023-09-12T14:35:34;13.00;;;8.70;;
34892;SDS011;21106;52.240;20.902;2023-09-12T14:41:02;13.70;;;8.40;;
34892;SDS011;21106;52.240;20.902;2023-09-12T14:46:29;20.60;;;8.70;;
34892;SDS011;21106;52.240;20.902;2023-09-12T14:51:55;13.00;;;8.70;;
34892;SDS011;21106;52.240;20.902;2023-09-12T14:57:22;9.40;;;7.90;;
34892;SDS011;21106;52.240;20.902;2023-09-12T15:02:49;12.40;;;8.20;;
34892;SDS011;21106;52.240;20.902;2023-09-12T15:08:16;10.70;;;8.30;;
34892;SDS011;21106;52.240;20.902;2023-09-12T15:13:43;12.10;;;8.60;;
34892;SDS011;21106;52.240;20.902;2023-09-12T15:19:12;13.60;;;8.60;;
34892;SDS011;21106;52.240;20.902;2023-09-12T15:24:42;13.50;;;8.50;;
34892;SDS011;21106;52.240;20.902;2023-09-12T15:30:08;11.60;;;8.00;;
34892;SDS011;21106;52.240;20.902;2023-09-12T15:35:41;13.00;;;7.80;;
34892;SDS011;21106;52.240;20.902;2023-09-12T15:41:08;12.50;;;7.80;;
34892;SDS011;21106;52.240;20.902;2023-09-12T15:46:35;11.50;;;8.80;;
34892;SDS011;21106;52.240;20.902;2023-09-12T15:52:02;9.00;;;8.10;;
34892;SDS011;21106;52.240;20.902;2023-09-12T15:57:29;13.60;;;8.80;;
34892;SDS011;21106;52.240;20.902;2023-09-12T16:02:56;11.00;;;8.60;;
34892;SDS011;21106;52.240;20.902;2023-09-12T16:08:23;12.00;;;7.80;;
34892;SDS011;21106;52.240;20.902;2023-09-12T16:13:49;20.10;;;8.60;;
34892;SDS011;21106;52.240;20.902;2023-09-12T16:19:16;15.50;;;8.40;;
34892;SDS011;21106;52.240;20.902;2023-09-12T16:24:42;14.10;;;8.80;;
34892;SDS011;21106;52.240;20.902;2023-09-12T16:30:09;15.60;;;8.40;;
34892;SDS011;21106;52.240;20.902;2023-09-12T16:35:36;15.80;;;9.30;;
34892;SDS011;21106;52.240;20.902;2023-09-12T16:41:03;12.60;;;9.40;;
34892;SDS011;21106;52.240;20.902;2023-09-12T16:46:29;15.00;;;9.20;;
34892;SDS011;21106;52.240;20.902;2023-09-12T16:51:56;15.40;;;8.90;;
34892;SDS011;21106;52.240;20.902;2023-09-12T16:57:22;23.40;;;9.80;;
34892;SDS011;21106;52.240;20.902;2023-09-12T17:02:49;16.00;;;9.10;;
34892;SDS011;21106;52.240;20.902;2023-09-12T17:08:15;13.90;;;9.00;;
34892;SDS011;21106;52.240;20.902;2023-09-12T17:13:41;13.10;;;8.90;;
34892;SDS011;21106;52.240;20.902;2023-09-12T17:19:08;15.40;;;8.40;;
34892;SDS011;21106;52.240;20.902;2023-09-12T17:24:56;17.50;;;8.30;;
34892;SDS011;21106;52.240;20.902;2023-09-12T17:30:19;25.40;;;9.50;;
34892;SDS011;21106;52.240;20.902;2023-09-12T17:35:47;16.10;;;10.50;;
34892;SDS011;21106;52.240;20.902;2023-09-12T17:41:14;24.30;;;11.80;;
34892;SDS011;21106;52.240;20.902;2023-09-12T17:46:40;24.90;;;11.30;;
34892;SDS011;21106;52.240;20.902;2023-09-12T17:52:06;24.00;;;11.00;;
34892;SDS011;21106;52.240;20.902;2023-09-12T17:57:39;18.20;;;10.80;;
34892;SDS011;21106;52.240;20.902;2023-09-12T18:09:36;18.80;;;11.10;;
34892;SDS011;21106;52.240;20.902;2023-09-12T18:15:03;21.10;;;10.80;;
34892;SDS011;21106;52.240;20.902;2023-09-12T18:20:54;25.40;;;10.80;;
34892;SDS011;21106;52.240;20.902;2023-09-12T18:26:22;15.90;;;11.30;;
34892;SDS011;21106;52.240;20.902;2023-09-12T18:31:51;34.50;;;11.50;;
34892;SDS011;21106;52.240;20.902;2023-09-12T18:37:20;33.30;;;11.50;;
34892;SDS011;21106;52.240;20.902;2023-09-12T18:48:14;21.00;;;12.10;;
34892;SDS011;21106;52.240;20.902;2023-09-12T18:53:51;22.60;;;11.90;;
34892;SDS011;21106;52.240;20.902;2023-09-12T18:59:17;21.80;;;12.50;;
34892;SDS011;21106;52.240;20.902;2023-09-12T19:04:44;24.10;;;12.60;;
34892;SDS011;21106;52.240;20.902;2023-09-12T19:10:12;26.30;;;12.80;;
34892;SDS011;21106;52.240;20.902;2023-09-12T19:15:39;23.70;;;13.10;;
34892;SDS011;21106;52.240;20.902;2023-09-12T19:21:05;22.60;;;11.80;;
34892;SDS011;21106;52.240;20.902;2023-09-12T19:26:32;31.20;;;13.00;;
34892;SDS011;21106;52.240;20.902;2023-09-12T19:32:00;28.30;;;13.00;;
34892;SDS011;21106;52.240;20.902;2023-09-12T19:37:26;22.20;;;12.90;;
34892;SDS011;21106;52.240;20.902;2023-09-12T19:42:53;27.20;;;12.40;;
34892;SDS011;21106;52.240;20.902;2023-09-12T19:48:22;20.10;;;12.90;;
34892;SDS011;21106;52.240;20.902;2023-09-12T19:53:48;23.30;;;12.10;;
34892;SDS011;21106;52.240;20.902;2023-09-12T19:59:15;18.30;;;12.50;;
34892;SDS011;21106;52.240;20.902;2023-09-12T20:04:42;19.30;;;11.80;;
34892;SDS011;21106;52.240;20.902;2023-09-12T20:10:08;19.60;;;12.20;;
34892;SDS011;21106;52.240;20.902;2023-09-12T20:15:36;23.90;;;12.30;;
34892;SDS011;21106;52.240;20.902;2023-09-12T20:21:11;22.80;;;12.10;;
34892;SDS011;21106;52.240;20.902;2023-09-12T20:27:41;20.70;;;12.70;;
34892;SDS011;21106;52.240;20.902;2023-09-12T20:33:08;24.30;;;13.10;;
34892;SDS011;21106;52.240;20.902;2023-09-12T20:38:35;24.70;;;13.70;;
34892;SDS011;21106;52.240;20.902;2023-09-12T20:44:02;16.60;;;13.00;;
34892;SDS011;21106;52.240;20.902;2023-09-12T20:49:29;21.90;;;13.00;;
34892;SDS011;21106;52.240;20.902;2023-09-12T20:55:20;22.00;;;13.00;;
34892;SDS011;21106;52.240;20.902;2023-09-12T21:00:47;23.70;;;13.90;;
34892;SDS011;21106;52.240;20.902;2023-09-12T21:06:35;18.10;;;13.60;;
34892;SDS011;21106;52.240;20.902;2023-09-12T21:12:26;20.70;;;13.40;;
34892;SDS011;21106;52.240;20.902;2023-09-12T21:17:55;19.30;;;13.50;;
34892;SDS011;21106;52.240;20.902;2023-09-12T21:23:22;17.90;;;13.60;;
34892;SDS011;21106;52.240;20.902;2023-09-12T21:28:49;20.40;;;13.80;;
34892;SDS011;21106;52.240;20.902;2023-09-12T21:34:17;18.30;;;14.30;;
34892;SDS011;21106;52.240;20.902;2023-09-12T21:39:44;17.60;;;15.00;;
34892;SDS011;21106;52.240;20.902;2023-09-12T21:45:10;26.50;;;15.30;;
34892;SDS011;21106;52.240;20.902;2023-09-12T21:50:39;24.00;;;15.30;;
34892;SDS011;21106;52.240;20.902;2023-09-12T21:56:06;22.20;;;16.20;;
34892;SDS011;21106;52.240;20.902;2023-09-12T22:01:32;18.30;;;14.50;;
34892;SDS011;21106;52.240;20.902;2023-09-12T22:06:59;25.30;;;14.50;;
34892;SDS011;21106;52.240;20.902;2023-09-12T22:12:25;23.80;;;16.30;;
34892;SDS011;21106;52.240;20.902;2023-09-12T22:17:52;27.90;;;15.20;;
34892;SDS011;21106;52.240;20.902;2023-09-12T22:23:19;22.90;;;15.70;;
34892;SDS011;21106;52.240;20.902;2023-09-12T22:28:45;24.70;;;15.90;;
34892;SDS011;21106;52.240;20.902;2023-09-12T22:34:12;18.20;;;15.50;;
34892;SDS011;21106;52.240;20.902;2023-09-12T22:39:38;21.70;;;16.80;;
34892;SDS011;21106;52.240;20.902;2023-09-12T22:45:06;19.90;;;16.40;;
34892;SDS011;21106;52.240;20.902;2023-09-12T22:50:32;19.10;;;16.60;;
34892;SDS011;21106;52.240;20.902;2023-09-12T22:56:01;25.80;;;18.10;;
34892;SDS011;21106;52.240;20.902;2023-09-12T23:01:29;21.30;;;17.30;;
34892;SDS011;21106;52.240;20.902;2023-09-12T23:06:57;24.90;;;17.40;;
34892;SDS011;21106;52.240;20.902;2023-09-12T23:12:24;19.10;;;17.10;;
34892;SDS011;21106;52.240;20.902;2023-09-12T23:17:50;23.70;;;17.80;;
34892;SDS011;21106;52.240;20.902;2023-09-12T23:23:17;21.60;;;17.60;;
34892;SDS011;21106;52.240;20.902;2023-09-12T23:28:44;20.10;;;17.40;;
34892;SDS011;21106;52.240;20.902;2023-09-12T23:34:10;21.10;;;17.80;;
34892;SDS011;21106;52.240;20.902;2023-09-12T23:39:37;22.30;;;17.50;;
34892;SDS011;21106;52.240;20.902;2023-09-12T23:45:04;24.00;;;17.80;;
34892;SDS011;21106;52.240;20.902;2023-09-12T23:50:30;23.00;;;17.60;;
34892;SDS011;21106;52.240;20.902;2023-09-12T23:55:58;23.30;;;18.20;;
